Time;durP1;ratioP1;P1;durP2;ratioP2;P2;SDS_P1;SDS_P2;PMS_P1;PMS_P2;Temp;Humidity;BMP_temperature;BMP_pressure;BME280_temperature;BME280_humidity;BME280_pressure;Samples;Min_cycle;Max_cycle;Signal;HPM_P1;HPM_P2
2022/05/11 00:01:35;;;;;;;9.73;9.03;;;;;;;16.65;100.00;100282.41;5022004;28;20226;-50
2022/05/11 00:04:01;;;;;;;10.13;9.33;;;;;;;16.61;100.00;100275.59;5015979;28;20193;-57
2022/05/11 00:06:28;;;;;;;9.57;8.87;;;;;;;16.58;100.00;100276.56;5018372;28;20187;-50
2022/05/11 00:08:56;;;;;;;9.60;8.83;;;;;;;16.57;100.00;100276.59;5018817;28;20213;-50
2022/05/11 00:11:22;;;;;;;9.60;8.80;;;;;;;16.53;100.00;100278.47;5023008;28;20786;-50
2022/05/11 00:13:47;;;;;;;9.60;8.90;;;;;;;16.49;100.00;100273.41;5019458;28;20192;-49
2022/05/11 00:16:13;;;;;;;9.13;8.37;;;;;;;16.47;100.00;100268.25;5026357;28;20197;-50
2022/05/11 00:18:39;;;;;;;10.63;9.77;;;;;;;16.46;100.00;100271.75;5019770;28;20185;-50
2022/05/11 00:21:06;;;;;;;9.87;9.07;;;;;;;16.44;100.00;100269.19;5019578;28;20203;-51
2022/05/11 00:23:32;;;;;;;9.77;9.07;;;;;;;16.42;100.00;100268.38;5009035;28;20633;-51
2022/05/11 00:25:57;;;;;;;10.53;9.63;;;;;;;16.41;100.00;100264.03;5027038;28;21011;-50
2022/05/11 00:28:23;;;;;;;11.43;10.43;;;;;;;16.37;100.00;100261.59;5019546;28;20180;-50
2022/05/11 00:30:48;;;;;;;10.70;9.87;;;;;;;16.35;100.00;100261.66;5022791;28;20183;-50
2022/05/11 00:33:15;;;;;;;11.10;10.30;;;;;;;16.34;100.00;100264.31;5021683;28;20211;-52
2022/05/11 00:35:42;;;;;;;11.70;10.70;;;;;;;16.30;100.00;100261.81;5018893;28;20323;-50
2022/05/11 00:38:08;;;;;;;9.73;9.03;;;;;;;16.27;100.00;100256.69;5021304;28;20199;-50
2022/05/11 00:43:09;;;;;;;9.97;9.17;;;;;;;16.20;100.00;100255.16;5691662;22;20233;-51
2022/05/11 00:45:38;;;;;;;9.33;8.63;;;;;;;16.15;100.00;100244.88;5026330;28;20196;-51
2022/05/11 00:50:59;;;;;;;9.73;9.03;;;;;;;16.03;100.00;100249.66;4998732;28;20680;-51
2022/05/11 00:53:25;;;;;;;10.17;9.27;;;;;;;15.98;100.00;100255.88;4990936;28;20217;-51
2022/05/11 00:55:55;;;;;;;10.00;9.20;;;;;;;15.94;100.00;100250.81;5004741;28;20485;-51
2022/05/11 00:58:30;;;;;;;9.73;9.03;;;;;;;15.87;100.00;100249.28;4995504;28;20243;-52
2022/05/11 01:00:57;;;;;;;9.40;8.77;;;;;;;15.80;100.00;100252.09;4998739;28;20621;-51
2022/05/11 01:03:38;;;;;;;8.10;7.50;;;;;;;15.77;100.00;100254.78;4998485;28;20211;-50
2022/05/11 01:06:06;;;;;;;8.90;8.10;;;;;;;15.70;100.00;100248.03;5000300;28;20193;-51
2022/05/11 01:08:32;;;;;;;8.00;7.30;;;;;;;15.63;100.00;100247.38;5000915;28;20678;-51
2022/05/11 01:11:01;;;;;;;8.10;7.50;;;;;;;15.61;100.00;100243.09;5003265;28;20809;-51
2022/05/11 01:13:27;;;;;;;8.07;7.47;;;;;;;15.57;100.00;100249.31;5001563;28;20216;-51
2022/05/11 01:15:52;;;;;;;7.93;7.33;;;;;;;15.55;100.00;100244.16;4980163;28;22157;-51
2022/05/11 01:18:20;;;;;;;7.87;7.27;;;;;;;15.54;100.00;100242.44;5004788;28;20204;-51
2022/05/11 01:20:45;;;;;;;7.53;7.03;;;;;;;15.51;100.00;100237.31;5003908;28;20224;-51
2022/05/11 01:23:17;;;;;;;7.83;7.23;;;;;;;15.51;100.00;100242.53;5003531;28;20223;-51
2022/05/11 01:25:42;;;;;;;6.93;6.43;;;;;;;15.48;100.00;100234.78;5001207;28;20559;-52
2022/05/11 01:28:14;;;;;;;7.53;7.03;;;;;;;15.43;100.00;100234.09;5006313;28;20191;-51
2022/05/11 01:30:44;;;;;;;7.67;7.13;;;;;;;15.40;100.00;100242.84;5009041;28;20238;-52
2022/05/11 01:33:15;;;;;;;7.07;6.47;;;;;;;15.37;100.00;100240.31;5009065;28;20302;-51
2022/05/11 01:35:44;;;;;;;7.33;6.77;;;;;;;15.34;100.00;100235.22;5011171;28;20187;-51
2022/05/11 01:38:28;;;;;;;7.73;7.03;;;;;;;15.32;100.00;100239.63;5008946;28;20660;-51
2022/05/11 01:40:54;;;;;;;7.20;6.60;;;;;;;15.31;100.00;100240.53;5007221;28;20212;-51
2022/05/11 01:43:25;;;;;;;7.57;6.97;;;;;;;15.28;100.00;100241.44;5012446;28;20879;-51
2022/05/11 01:45:51;;;;;;;7.27;6.57;;;;;;;15.26;100.00;100238.06;5006323;28;20222;-51
2022/05/11 01:48:17;;;;;;;7.40;6.77;;;;;;;15.24;100.00;100242.44;5007798;28;20222;-51
2022/05/11 01:50:42;;;;;;;7.17;6.67;;;;;;;15.19;100.00;100236.50;5010184;28;20218;-51
2022/05/11 01:53:08;;;;;;;7.37;6.83;;;;;;;15.15;100.00;100243.56;5007551;28;20729;-51
2022/05/11 01:55:34;;;;;;;7.97;7.37;;;;;;;15.09;100.00;100239.38;5006952;28;20224;-51
2022/05/11 01:58:01;;;;;;;7.13;6.63;;;;;;;15.05;100.00;100229.94;5007255;28;20590;-52
2022/05/11 02:00:27;;;;;;;7.60;7.10;;;;;;;15.02;100.00;100242.22;5006620;28;20216;-51
2022/05/11 02:02:52;;;;;;;7.60;7.00;;;;;;;15.01;100.00;100235.28;5006768;28;20207;-51
2022/05/11 02:08:02;;;;;;;7.13;6.60;;;;;;;15.00;100.00;100237.03;5009108;28;20195;-51
2022/05/11 02:10:28;;;;;;;6.80;6.30;;;;;;;14.99;100.00;100235.31;5009075;28;20224;-51
2022/05/11 02:12:55;;;;;;;6.63;6.13;;;;;;;14.99;100.00;100230.09;5008129;28;20211;-51
2022/05/11 02:15:21;;;;;;;7.03;6.53;;;;;;;14.98;100.00;100230.16;5006184;28;20676;-51
2022/05/11 02:17:47;;;;;;;7.73;7.13;;;;;;;14.96;100.00;100230.22;5005060;28;20188;-51
2022/05/11 02:20:14;;;;;;;7.53;7.00;;;;;;;14.94;100.00;100226.78;5008074;28;20216;-51
2022/05/11 02:22:41;;;;;;;7.57;7.03;;;;;;;14.92;100.00;100228.59;5006642;28;20860;-51
2022/05/11 02:25:07;;;;;;;8.00;7.40;;;;;;;14.91;100.00;100221.66;5006411;28;20249;-51
2022/05/11 02:27:33;;;;;;;8.30;7.60;;;;;;;14.91;100.00;100226.88;5006064;28;20704;-51
2022/05/11 02:30:00;;;;;;;8.73;7.93;;;;;;;14.90;100.00;100228.59;5006644;28;20270;-51
2022/05/11 02:32:26;;;;;;;8.60;7.93;;;;;;;14.88;100.00;100229.56;5009042;28;20215;-51
2022/05/11 02:37:35;;;;;;;8.80;8.10;;;;;;;14.85;100.00;100230.50;5007094;28;20191;-51
2022/05/11 02:40:02;;;;;;;8.30;7.70;;;;;;;14.82;100.00;100230.59;5006943;28;20215;-51
2022/05/11 02:42:28;;;;;;;9.37;8.57;;;;;;;14.80;100.00;100228.94;5006911;28;20207;-51
2022/05/11 02:44:53;;;;;;;8.47;7.67;;;;;;;14.76;100.00;100230.75;5006889;28;20210;-51
2022/05/11 02:47:18;;;;;;;9.00;8.10;;;;;;;14.70;100.00;100218.75;5004863;28;20187;-51
2022/05/11 02:49:45;;;;;;;9.17;8.47;;;;;;;14.68;100.00;100236.16;5006875;28;20181;-50
2022/05/11 02:52:11;;;;;;;8.50;7.83;;;;;;;14.63;100.00;100230.19;5005438;28;20207;-51
2022/05/11 02:54:36;;;;;;;8.73;8.03;;;;;;;14.59;100.00;100221.63;5007767;28;20195;-50
2022/05/11 02:57:02;;;;;;;8.37;7.77;;;;;;;14.56;100.00;100232.13;5004162;28;20271;-50
2022/05/11 02:59:28;;;;;;;8.97;8.27;;;;;;;14.50;100.00;100227.06;5003704;28;20246;-51
2022/05/11 03:01:54;;;;;;;8.27;7.67;;;;;;;14.47;100.00;100232.34;5003535;28;20193;-51
2022/05/11 03:04:19;;;;;;;8.10;7.50;;;;;;;14.43;100.00;100228.13;5004187;28;20212;-51
2022/05/11 03:06:47;;;;;;;8.30;7.60;;;;;;;14.40;100.00;100226.44;5009363;28;20184;-50
2022/05/11 03:09:16;;;;;;;7.93;7.33;;;;;;;14.36;100.00;100221.34;5007060;28;20327;-51
2022/05/11 03:11:43;;;;;;;8.30;7.63;;;;;;;14.31;100.00;100224.09;5003315;28;20264;-51
2022/05/11 03:14:09;;;;;;;7.70;7.10;;;;;;;14.28;100.00;100219.81;5005806;28;20208;-51
2022/05/11 03:16:36;;;;;;;7.47;6.90;;;;;;;14.28;100.00;100213.75;5005463;28;22192;-50
2022/05/11 03:19:02;;;;;;;8.13;7.53;;;;;;;14.24;100.00;100212.09;5004459;28;22115;-51
2022/05/11 03:21:28;;;;;;;7.47;6.97;;;;;;;14.22;100.00;100208.72;5004822;28;20180;-51
2022/05/11 03:23:54;;;;;;;7.67;7.07;;;;;;;14.20;100.00;100207.88;5004395;28;20570;-51
2022/05/11 03:26:20;;;;;;;8.20;7.50;;;;;;;14.15;100.00;100211.47;5001722;28;20209;-51
2022/05/11 03:28:46;;;;;;;7.63;7.13;;;;;;;14.12;100.00;100203.72;5005310;28;20194;-51
2022/05/11 03:31:11;;;;;;;7.40;6.90;;;;;;;14.10;100.00;100209.88;5003157;28;20195;-51
2022/05/11 03:36:21;;;;;;;7.97;7.30;;;;;;;14.02;100.00;100216.09;5006825;28;20252;-50
2022/05/11 03:38:48;;;;;;;7.63;7.03;;;;;;;14.00;100.00;100217.03;5004716;28;20195;-51
2022/05/11 03:41:13;;;;;;;7.10;6.50;;;;;;;13.99;100.00;100217.94;5006127;28;20224;-50
2022/05/11 03:43:38;;;;;;;7.53;7.00;;;;;;;13.98;100.00;100205.81;5002615;28;20220;-51
2022/05/11 03:46:04;;;;;;;7.10;6.60;;;;;;;13.97;100.00;100207.56;5008440;28;20224;-51
2022/05/11 03:48:29;;;;;;;7.17;6.60;;;;;;;13.97;100.00;100207.56;5004759;28;20190;-51
2022/05/11 03:50:56;;;;;;;8.07;7.47;;;;;;;13.98;100.00;100201.47;5007944;28;20194;-51
2022/05/11 03:53:21;;;;;;;6.67;6.23;;;;;;;13.99;100.00;100208.38;5002359;28;20294;-51
2022/05/11 03:55:46;;;;;;;6.97;6.37;;;;;;;14.00;100.00;100204.03;4999616;28;21192;-51
2022/05/11 03:58:13;;;;;;;7.40;6.70;;;;;;;14.01;100.00;100211.78;5002714;28;20196;-50
2022/05/11 04:00:38;;;;;;;6.77;6.27;;;;;;;14.04;100.00;100218.69;4988765;28;20227;-50
2022/05/11 04:03:04;;;;;;;6.50;6.00;;;;;;;14.08;100.00;100214.25;5004496;28;20217;-51
2022/05/11 04:05:32;;;;;;;9.60;6.93;;;;;;;14.11;100.00;100217.63;5005479;28;20199;-51
2022/05/11 04:07:57;;;;;;;6.77;6.03;;;;;;;14.13;100.00;100209.78;5005993;28;20188;-51
2022/05/11 04:10:23;;;;;;;7.40;6.73;;;;;;;14.17;100.00;100211.41;5010584;28;20680;-50
2022/05/11 04:12:48;;;;;;;13.70;6.60;;;;;;;14.18;100.00;100208.78;5005048;28;20217;-51
2022/05/11 04:15:15;;;;;;;12.83;7.13;;;;;;;14.21;100.00;100215.66;5005325;28;20667;-50
2022/05/11 04:17:42;;;;;;;15.10;8.47;;;;;;;14.22;100.00;100212.16;5006364;28;20565;-51
2022/05/11 04:20:10;;;;;;;11.57;8.07;;;;;;;14.26;100.00;100208.59;5006717;28;20687;-50
2022/05/11 04:22:35;;;;;;;13.70;8.17;;;;;;;14.34;100.00;100211.00;5005657;28;20209;-51
2022/05/11 04:25:01;;;;;;;11.97;8.13;;;;;;;14.45;100.00;100211.56;5004166;28;20192;-51
2022/05/11 04:27:27;;;;;;;8.13;7.30;;;;;;;14.57;100.00;100215.59;5004883;28;20637;-51
2022/05/11 04:29:52;;;;;;;9.17;7.70;;;;;;;14.61;100.00;100212.00;5007562;28;20244;-50
2022/05/11 04:32:17;;;;;;;13.63;8.20;;;;;;;14.62;100.00;100216.31;5007642;28;20734;-51
2022/05/11 04:34:43;;;;;;;15.00;8.50;;;;;;;14.63;100.00;100215.41;5004981;28;20223;-51
2022/05/11 04:37:11;;;;;;;20.70;9.90;;;;;;;14.68;100.00;100217.91;5016130;28;20191;-51
2022/05/11 04:39:36;;;;;;;18.70;9.47;;;;;;;14.71;100.00;100217.84;5002775;28;20219;-50
2022/05/11 04:42:02;;;;;;;24.40;9.90;;;;;;;14.78;100.00;100215.94;5004160;28;20191;-50
2022/05/11 04:44:28;;;;;;;20.37;9.70;;;;;;;14.90;100.00;100218.19;5007226;28;20639;-51
2022/05/11 04:46:54;;;;;;;20.33;9.83;;;;;;;15.01;100.00;100212.69;5006845;28;20669;-50
2022/05/11 04:49:19;;;;;;;18.53;9.43;;;;;;;15.09;100.00;100212.44;4986950;28;20182;-51
2022/05/11 04:52:09;;;;;;;16.83;9.13;;;;;;;15.20;100.00;100212.16;5005348;28;20186;-51
2022/05/11 04:54:39;;;;;;;14.93;8.57;;;;;;;15.32;100.00;100221.38;5006154;28;20202;-50
2022/05/11 04:57:06;;;;;;;13.30;7.47;;;;;;;15.44;100.00;100212.31;5005680;28;20196;-51
2022/05/11 04:59:32;;;;;;;8.70;7.87;;;;;;;15.54;100.00;100214.59;5010470;28;20745;-51
2022/05/11 05:01:59;;;;;;;7.37;6.77;;;;;;;15.70;100.00;100216.72;5007283;28;20559;-51
2022/05/11 05:04:28;;;;;;;6.90;6.33;;;;;;;15.91;100.00;100216.97;5008067;28;20191;-50
2022/05/11 05:06:54;;;;;;;7.10;6.50;;;;;;;16.08;100.00;100214.69;5008076;28;20200;-51
2022/05/11 05:09:20;;;;;;;7.20;6.60;;;;;;;16.27;100.00;100211.44;5011510;28;20545;-50
2022/05/11 05:11:46;;;;;;;6.87;6.27;;;;;;;16.48;100.00;100222.06;5011383;28;20192;-51
2022/05/11 05:14:11;;;;;;;6.20;5.77;;;;;;;16.76;100.00;100212.34;5009533;28;20220;-51
2022/05/11 05:16:37;;;;;;;6.07;5.67;;;;;;;17.32;100.00;100212.91;5011123;28;20226;-51
2022/05/11 05:19:03;;;;;;;5.73;5.33;;;;;;;18.05;100.00;100212.72;5011432;28;20207;-51
2022/05/11 05:21:29;;;;;;;6.53;5.83;;;;;;;18.53;100.00;100217.72;5011438;28;20199;-51
2022/05/11 05:23:54;;;;;;;5.93;5.33;;;;;;;18.88;100.00;100223.19;5007767;28;20208;-51
2022/05/11 05:26:20;;;;;;;6.20;5.40;;;;;;;19.62;98.34;100211.06;5009057;28;20219;-51
2022/05/11 05:31:31;;;;;;;9.03;6.03;;;;;;;21.74;92.04;100209.78;5009272;28;20210;-51
2022/05/11 05:33:59;;;;;;;20.27;6.87;;;;;;;22.98;88.64;100218.31;5008760;28;20270;-51
2022/05/11 05:36:30;;;;;;;37.10;8.93;;;;;;;24.14;85.52;100207.44;5006354;28;20650;-51
2022/05/11 05:38:58;;;;;;;28.60;8.27;;;;;;;24.99;83.05;100206.91;5005844;28;20199;-51
2022/05/11 05:41:24;;;;;;;21.53;7.53;;;;;;;25.72;80.65;100207.03;5009274;28;20180;-51
2022/05/11 05:43:50;;;;;;;31.80;7.63;;;;;;;26.45;78.77;100207.75;5009728;28;20219;-51
2022/05/11 05:46:16;;;;;;;16.13;6.57;;;;;;;27.10;77.27;100212.47;5007505;28;20191;-51
2022/05/11 05:48:42;;;;;;;8.97;5.23;;;;;;;27.32;76.02;100208.09;5005986;28;20275;-51
2022/05/11 05:51:10;;;;;;;6.83;4.30;;;;;;;27.49;75.75;100199.63;5007453;28;20651;-51
2022/05/11 05:53:36;;;;;;;5.67;4.30;;;;;;;27.89;75.29;100203.47;5004210;28;20304;-51
2022/05/11 05:56:02;;;;;;;4.50;4.20;;;;;;;28.46;73.79;100205.81;5010268;28;20211;-51
2022/05/11 05:58:28;;;;;;;4.90;4.30;;;;;;;28.92;72.43;100210.78;5004447;28;20694;-51
2022/05/11 06:00:53;;;;;;;4.50;4.20;;;;;;;29.50;71.62;100207.41;5008853;28;20245;-51
2022/05/11 06:03:25;;;;;;;3.83;3.60;;;;;;;30.09;70.15;100202.94;4987508;28;20204;-52
2022/05/11 06:05:51;;;;;;;4.07;3.77;;;;;;;30.50;69.36;100207.19;5009962;28;20184;-51
2022/05/11 06:08:17;;;;;;;3.80;3.50;;;;;;;30.55;68.46;100196.97;4988195;28;20181;-51
2022/05/11 06:10:44;;;;;;;3.83;3.53;;;;;;;30.66;67.85;100202.09;5006093;28;20208;-52
2022/05/11 06:13:12;;;;;;;3.80;3.37;;;;;;;31.09;67.03;100206.94;5010193;28;20287;-51
2022/05/11 06:15:39;;;;;;;3.87;3.50;;;;;;;31.52;66.04;100202.78;5007695;28;20239;-51
2022/05/11 06:18:06;;;;;;;3.70;3.40;;;;;;;31.89;65.46;100193.75;5008584;28;20267;-51
2022/05/11 06:20:31;;;;;;;4.17;3.87;;;;;;;32.22;64.68;100198.47;5009247;28;20622;-52
2022/05/11 06:22:57;;;;;;;3.60;3.40;;;;;;;32.49;63.71;100192.16;5006170;28;20207;-52
2022/05/11 06:25:23;;;;;;;4.05;3.60;;;;;;;32.66;63.33;100197.59;5005877;28;20188;-52
2022/05/11 06:27:48;;;;;;;4.00;3.70;;;;;;;32.86;62.60;100200.06;5007562;28;20192;-51
2022/05/11 06:30:15;;;;;;;3.40;3.20;;;;;;;33.05;61.68;100202.44;5010048;28;20675;-51
2022/05/11 06:32:40;;;;;;;6.10;3.40;;;;;;;33.21;61.26;100198.97;5005115;28;20290;-51
2022/05/11 06:35:06;;;;;;;3.85;3.45;;;;;;;33.35;60.87;100197.53;5006731;28;20271;-51
2022/05/11 06:37:31;;;;;;;3.42;3.17;;;;;;;33.46;60.13;100198.22;5009009;28;20188;-51
2022/05/11 06:39:58;;;;;;;3.95;3.53;;;;;;;33.53;59.99;100191.16;5010136;28;20239;-51
2022/05/11 06:42:24;;;;;;;3.97;3.63;;;;;;;33.61;59.48;100191.19;5008671;28;20204;-52
2022/05/11 06:44:50;;;;;;;3.67;3.38;;;;;;;33.64;59.26;100193.53;5008633;28;20195;-53
2022/05/11 06:47:16;;;;;;;4.20;3.78;;;;;;;33.65;58.28;100187.16;5010593;28;20192;-52
2022/05/11 06:49:42;;;;;;;4.28;3.88;;;;;;;33.47;58.05;100195.34;5007360;28;20176;-52
2022/05/11 06:52:08;;;;;;;4.03;3.83;;;;;;;33.31;58.40;100192.63;5010519;28;20735;-50
2022/05/11 07:00:01;;;;;;;4.60;4.20;;;;;;;33.05;57.67;100177.50;5006170;28;20223;-51
2022/05/11 07:02:26;;;;;;;4.70;4.30;;;;;;;32.86;58.26;100182.13;5011732;28;20212;-51
2022/05/11 07:04:52;;;;;;;4.40;4.10;;;;;;;32.90;58.91;100186.16;5007950;28;20569;-51
2022/05/11 07:07:18;;;;;;;5.18;4.68;;;;;;;32.87;58.93;100185.66;5009708;28;20188;-53
2022/05/11 07:09:45;;;;;;;6.30;4.10;;;;;;;32.80;59.06;100175.53;5008567;28;20191;-52
2022/05/11 07:12:17;;;;;;;5.55;4.82;;;;;;;32.66;58.52;100182.38;5009194;28;20271;-53
2022/05/11 07:14:47;;;;;;;4.43;4.05;;;;;;;32.50;59.39;100180.44;5010235;28;20189;-53
2022/05/11 07:17:33;;;;;;;5.20;4.80;;;;;;;32.36;59.77;100173.00;5008208;28;21952;-53
2022/05/11 07:20:01;;;;;;;4.53;4.23;;;;;;;32.28;60.21;100165.75;5007849;28;20907;-53
2022/05/11 07:22:27;;;;;;;4.90;4.50;;;;;;;32.27;60.25;100171.28;5008171;28;20215;-52
2022/05/11 07:24:52;;;;;;;6.00;4.30;;;;;;;32.20;61.08;100166.53;5007005;28;20723;-52
2022/05/11 07:27:18;;;;;;;4.23;3.83;;;;;;;32.12;61.26;100171.84;5008983;28;20192;-52
2022/05/11 07:29:44;;;;;;;5.43;4.00;;;;;;;32.01;60.73;100164.03;4989269;28;20180;-52
2022/05/11 07:32:10;;;;;;;4.43;4.05;;;;;;;31.86;61.57;100158.44;5007322;28;20188;-52
2022/05/11 07:34:38;;;;;;;4.50;4.10;;;;;;;31.69;61.89;100160.13;5007799;28;20275;-52
2022/05/11 07:37:04;;;;;;;4.00;3.67;;;;;;;31.57;62.31;100160.34;5008931;28;20267;-52
2022/05/11 07:39:29;;;;;;;4.13;3.83;;;;;;;31.45;61.83;100162.44;5007295;28;20634;-52
2022/05/11 07:41:55;;;;;;;4.57;3.87;;;;;;;31.27;61.35;100158.91;5008175;28;20250;-52
2022/05/11 07:44:21;;;;;;;3.77;3.47;;;;;;;31.06;61.56;100167.19;5007301;28;20230;-52
2022/05/11 07:46:47;;;;;;;3.93;3.63;;;;;;;30.91;61.97;100166.84;5008581;28;20188;-52
2022/05/11 07:49:13;;;;;;;4.23;3.73;;;;;;;30.72;60.84;100155.25;5010874;28;20192;-52
2022/05/11 07:51:41;;;;;;;4.17;3.80;;;;;;;30.53;61.95;100159.69;5005494;28;20203;-52
2022/05/11 07:54:07;;;;;;;3.83;3.53;;;;;;;30.40;62.52;100157.34;5006088;28;20200;-52
2022/05/11 08:02:00;;;;;;;4.40;3.93;;;;;;;29.83;63.18;100151.16;5008260;28;20649;-52
2022/05/11 08:04:25;;;;;;;4.13;3.80;;;;;;;29.65;64.19;100152.69;5003053;28;20192;-52
2022/05/11 08:06:51;;;;;;;5.93;4.20;;;;;;;29.56;62.83;100152.72;5007859;28;20192;-52
2022/05/11 08:09:17;;;;;;;4.50;3.70;;;;;;;29.38;63.85;100149.91;4989316;28;20646;-52
2022/05/11 08:11:42;;;;;;;3.73;3.43;;;;;;;29.24;64.25;100140.47;5006925;28;20188;-52
2022/05/11 08:14:08;;;;;;;4.07;3.67;;;;;;;29.06;63.28;100138.47;5004714;28;20618;-52
2022/05/11 08:16:33;;;;;;;4.10;3.80;;;;;;;28.90;63.72;100146.97;5008284;28;20180;-52
2022/05/11 08:18:59;;;;;;;5.30;3.70;;;;;;;28.80;63.92;100138.13;5007254;28;20634;-51
2022/05/11 08:21:25;;;;;;;4.50;4.20;;;;;;;28.65;64.88;100138.47;5008895;28;20212;-52
2022/05/11 08:23:50;;;;;;;4.00;3.53;;;;;;;28.54;64.95;100136.75;5008893;28;20219;-52
2022/05/11 08:26:16;;;;;;;4.17;3.87;;;;;;;28.50;64.94;100131.84;5004534;28;20646;-52
2022/05/11 08:28:42;;;;;;;5.20;3.97;;;;;;;28.42;64.76;100136.03;5007195;28;20192;-52
2022/05/11 08:33:52;;;;;;;4.37;3.97;;;;;;;28.18;66.58;100128.34;5007643;28;20226;-52
2022/05/11 08:36:24;;;;;;;4.27;3.90;;;;;;;28.02;66.84;100126.13;5006336;28;20204;-51
2022/05/11 08:38:55;;;;;;;4.10;3.70;;;;;;;27.87;66.92;100138.06;5010643;28;20188;-52
2022/05/11 08:41:42;;;;;;;4.57;4.03;;;;;;;27.69;66.96;100131.50;5012050;28;20216;-52
2022/05/11 08:44:10;;;;;;;8.13;4.20;;;;;;;27.65;66.68;100124.75;5008683;28;20297;-51
2022/05/11 08:46:52;;;;;;;6.13;4.17;;;;;;;27.57;66.39;100121.06;5009431;28;20619;-51
2022/05/11 08:49:23;;;;;;;6.33;4.40;;;;;;;27.48;66.83;100120.00;5012228;28;20203;-51
2022/05/11 08:52:00;;;;;;;4.90;3.90;;;;;;;27.48;66.61;100118.22;5009987;28;20204;-51
2022/05/11 08:54:44;;;;;;;5.57;4.30;;;;;;;27.53;66.09;100112.50;5006681;28;20199;-52
2022/05/11 08:57:14;;;;;;;5.57;3.97;;;;;;;27.46;66.73;100117.50;5014342;28;20192;-51
2022/05/11 08:59:40;;;;;;;5.67;4.50;;;;;;;27.47;67.52;100121.84;5008007;28;20212;-51
2022/05/11 09:02:14;;;;;;;4.53;4.00;;;;;;;27.56;67.96;100125.53;5010078;28;20324;-51
2022/05/11 09:04:46;;;;;;;4.20;3.80;;;;;;;27.56;68.00;100120.22;5008258;28;20406;-53
2022/05/11 09:07:12;;;;;;;4.17;3.87;;;;;;;27.58;68.36;100126.25;5008781;28;20277;-53
2022/05/11 09:09:38;;;;;;;4.40;4.10;;;;;;;27.60;68.75;100119.00;4995614;28;20200;-52
2022/05/11 09:12:05;;;;;;;4.33;4.03;;;;;;;27.66;68.19;100115.00;5008578;28;20283;-52
2022/05/11 09:14:44;;;;;;;4.63;4.23;;;;;;;27.82;67.58;100111.88;5001987;28;20220;-51
2022/05/11 09:17:23;;;;;;;5.10;4.70;;;;;;;27.85;67.60;100111.59;5000857;28;20184;-50
2022/05/11 09:20:21;;;;;;;4.47;4.17;;;;;;;27.86;66.40;100107.97;5011931;28;20302;-51
2022/05/11 09:22:52;;;;;;;9.33;4.73;;;;;;;27.88;66.82;100102.53;4968399;28;20663;-51
2022/05/11 09:27:28;;;;;;;6.57;4.63;;;;;;;27.94;67.11;100110.81;5056434;28;82091;-76
2022/05/11 09:30:17;;;;;;;4.87;4.47;;;;;;;27.98;66.91;100103.44;5012579;28;20219;-77
2022/05/11 09:32:44;;;;;;;6.80;4.77;;;;;;;28.03;67.78;100106.53;5008000;28;20594;-75
2022/05/11 09:35:18;;;;;;;4.40;4.10;;;;;;;28.06;67.97;100092.97;5021235;28;20713;-75
2022/05/11 09:37:53;;;;;;;4.50;4.17;;;;;;;28.08;67.46;100101.66;5008844;28;20751;-74
2022/05/11 09:40:23;;;;;;;4.40;4.10;;;;;;;28.12;68.30;100097.81;5020583;28;20180;-76
2022/05/11 09:42:58;;;;;;;6.47;4.73;;;;;;;28.25;67.04;100096.75;5016479;28;20722;-76
2022/05/11 09:45:47;;;;;;;4.60;4.20;;;;;;;28.28;66.57;100101.81;5019277;28;20792;-76
2022/05/11 09:48:23;;;;;;;5.37;4.87;;;;;;;28.22;65.89;100089.84;5016127;28;20184;-76
2022/05/11 09:50:56;;;;;;;6.37;4.50;;;;;;;28.23;66.11;100094.19;5011339;28;20191;-76
2022/05/11 09:53:39;;;;;;;6.80;5.20;;;;;;;28.17;66.78;100089.41;5021111;28;20242;-77
2022/05/11 09:56:19;;;;;;;4.73;4.40;;;;;;;28.15;66.75;100080.72;5019086;28;20254;-76
2022/05/11 09:58:45;;;;;;;5.00;4.60;;;;;;;28.27;66.89;100077.00;5031297;28;20853;-76
2022/05/11 10:01:30;;;;;;;6.00;4.60;;;;;;;28.36;67.19;100080.66;5015504;28;20193;-77
2022/05/11 10:04:02;;;;;;;4.47;4.07;;;;;;;28.36;66.92;100086.00;5023192;28;20196;-77
2022/05/11 10:06:34;;;;;;;6.43;4.60;;;;;;;28.50;65.18;100076.81;5023171;28;20265;-77
2022/05/11 10:09:02;;;;;;;5.73;4.70;;;;;;;28.52;66.18;100066.00;5018375;28;20263;-77
2022/05/11 10:11:56;;;;;;;4.87;4.43;;;;;;;28.59;65.61;100072.47;5017291;28;20192;-75
2022/05/11 10:23:05;;;;;;;4.30;3.90;;;;;;;28.55;64.71;100063.09;5018663;28;20194;-75
2022/05/11 10:25:40;;;;;;;4.33;3.87;;;;;;;28.63;64.19;100060.56;5018480;28;20225;-75
2022/05/11 10:28:25;;;;;;;4.60;4.20;;;;;;;28.63;64.43;100054.41;5025440;28;21012;-75
2022/05/11 10:30:53;;;;;;;5.80;4.30;;;;;;;28.71;64.10;100055.41;5021185;28;20304;-75
2022/05/11 10:33:58;;;;;;;8.33;4.37;;;;;;;28.71;64.04;100052.75;5022546;28;20183;-75
2022/05/11 10:36:29;;;;;;;4.60;4.20;;;;;;;28.72;63.76;100051.78;5020853;28;20186;-75
2022/05/11 10:39:09;;;;;;;5.07;4.57;;;;;;;28.69;63.58;100043.19;5006048;28;20267;-75
2022/05/11 10:41:58;;;;;;;4.23;3.93;;;;;;;28.64;63.95;100048.94;5011528;28;20188;-76
2022/05/11 10:44:32;;;;;;;4.70;4.30;;;;;;;28.68;64.36;100036.19;5005116;28;20223;-74
2022/05/11 10:47:36;;;;;;;5.10;4.70;;;;;;;28.71;64.68;100043.91;5008093;28;20218;-75
2022/05/11 10:50:23;;;;;;;5.13;4.60;;;;;;;28.87;63.56;100032.75;5020772;28;20180;-76
2022/05/11 10:53:12;;;;;;;4.50;4.10;;;;;;;28.86;62.80;100039.91;5003660;28;20566;-75
2022/05/11 10:55:56;;;;;;;5.53;4.47;;;;;;;28.88;62.69;100035.28;5018709;28;20265;-74
2022/05/11 10:58:34;;;;;;;6.87;4.17;;;;;;;28.84;63.12;100033.03;5007957;28;20188;-74
2022/05/11 11:01:08;;;;;;;4.83;4.43;;;;;;;28.82;64.13;100019.84;5021740;28;20183;-75
2022/05/11 11:04:00;;;;;;;4.70;4.40;;;;;;;28.82;64.06;100019.84;5019555;28;20184;-76
2022/05/11 11:10:02;;;;;;;5.13;4.60;;;;;;;29.01;63.69;100020.84;5006309;28;20274;-75
2022/05/11 11:13:01;;;;;;;5.63;4.80;;;;;;;29.18;63.07;100013.97;5010185;28;20203;-75
2022/05/11 11:15:29;;;;;;;5.10;4.47;;;;;;;29.28;62.68;100013.94;5010142;28;20200;-75
2022/05/11 11:18:16;;;;;;;6.07;4.63;;;;;;;29.30;62.42;100007.50;5000306;28;20181;-75
2022/05/11 11:20:46;;;;;;;4.60;4.13;;;;;;;29.28;61.64;100011.28;5008437;28;20227;-75
2022/05/11 11:23:12;;;;;;;7.07;4.10;;;;;;;29.28;61.81;100003.28;5008024;28;20188;-76
2022/05/11 11:25:53;;;;;;;5.70;4.30;;;;;;;29.44;62.22;100008.91;5010189;28;20212;-75
2022/05/11 11:28:22;;;;;;;5.03;4.20;;;;;;;29.53;61.50;99998.38;5007080;28;20196;-76
2022/05/11 11:31:12;;;;;;;4.57;4.27;;;;;;;29.41;61.45;99995.03;5005362;28;20195;-75
2022/05/11 11:33:54;;;;;;;6.53;3.90;;;;;;;29.42;61.02;99994.88;5008404;28;20211;-75
2022/05/11 11:36:28;;;;;;;4.47;4.07;;;;;;;29.46;61.32;99996.28;5008591;28;20580;-75
2022/05/11 11:38:58;;;;;;;7.47;3.90;;;;;;;29.37;61.50;99993.63;5008587;28;20191;-76
2022/05/11 11:41:33;;;;;;;4.47;3.90;;;;;;;29.29;61.81;99988.97;5010250;28;20188;-76
2022/05/11 11:44:04;;;;;;;4.23;3.93;;;;;;;29.22;61.40;99988.72;5003769;28;20180;-76
2022/05/11 11:46:40;;;;;;;4.27;3.87;;;;;;;29.26;61.18;99979.44;5008371;28;20358;-76
2022/05/11 11:49:32;;;;;;;3.97;3.70;;;;;;;29.25;61.32;99987.59;5002989;28;20192;-76
2022/05/11 11:52:01;;;;;;;4.73;4.30;;;;;;;29.11;61.53;99978.22;5009048;28;20195;-75
2022/05/11 11:54:34;;;;;;;4.27;3.87;;;;;;;28.90;61.86;99976.53;5008601;28;20258;-75
2022/05/11 11:57:01;;;;;;;4.00;3.70;;;;;;;28.95;62.09;99974.28;5009268;28;20180;-75
2022/05/11 11:59:28;;;;;;;6.70;4.33;;;;;;;29.31;63.45;99968.34;5003692;28;20234;-75
2022/05/11 12:01:59;;;;;;;4.93;4.40;;;;;;;29.52;62.09;99978.03;5005410;28;20192;-76
2022/05/11 12:04:27;;;;;;;5.30;4.00;;;;;;;29.56;61.70;99972.25;5005687;28;20243;-76
2022/05/11 12:15:20;;;;;;;4.20;3.83;;;;;;;29.86;58.78;99950.81;5006953;28;20768;-76
2022/05/11 12:17:46;;;;;;;4.90;4.40;;;;;;;29.83;59.80;99941.28;5002858;28;20675;-76
2022/05/11 12:20:17;;;;;;;4.80;4.17;;;;;;;29.89;59.94;99945.16;5006318;28;20241;-76
2022/05/11 12:23:05;;;;;;;5.97;4.30;;;;;;;29.78;60.15;99948.88;5006085;28;20185;-77
2022/05/11 12:25:36;;;;;;;4.60;4.20;;;;;;;29.67;60.49;99944.59;5002843;28;20232;-75